Time;durP1;ratioP1;P1;durP2;ratioP2;P2;SDS_P1;SDS_P2;PMS_P1;PMS_P2;Temp;Humidity;BMP_temperature;BMP_pressure;BME280_temperature;BME280_humidity;BME280_pressure;Samples;Min_cycle;Max_cycle;Signal;HPM_P1;HPM_P2
2023/04/11 00:02:13;;;;;;;11.00;7.28;;;;;;;8.71;100.00;100259.00;5010815;28;20041;-74
2023/04/11 00:04:38;;;;;;;12.67;7.23;;;;;;;8.63;100.00;100239.34;5017316;28;20037;-73
2023/04/11 00:07:06;;;;;;;12.43;6.77;;;;;;;8.59;100.00;100232.72;5014848;28;20091;-75
2023/04/11 00:09:32;;;;;;;11.63;7.30;;;;;;;8.66;100.00;100235.53;5035292;28;20059;-75
2023/04/11 00:11:57;;;;;;;8.95;6.22;;;;;;;8.70;100.00;100214.78;5020548;28;20511;-75
2023/04/11 00:14:23;;;;;;;10.03;6.80;;;;;;;8.68;100.00;100198.97;5031516;28;20045;-74
2023/04/11 00:16:52;;;;;;;10.80;6.65;;;;;;;8.64;100.00;100187.00;5007352;28;20507;-74
2023/04/11 00:19:22;;;;;;;12.75;6.93;;;;;;;8.63;100.00;100164.84;5021548;28;20494;-75
2023/04/11 00:21:51;;;;;;;10.27;6.38;;;;;;;8.60;100.00;100148.41;5009892;28;20033;-75
2023/04/11 00:24:16;;;;;;;10.13;6.53;;;;;;;8.57;100.00;100154.03;5015743;28;20041;-75
2023/04/11 00:26:41;;;;;;;13.75;7.05;;;;;;;8.62;100.00;100149.06;5040356;23;20049;-79
2023/04/11 00:29:07;;;;;;;11.17;6.00;;;;;;;8.64;100.00;100147.09;5034689;28;20477;-77
2023/04/11 00:31:33;;;;;;;11.77;6.13;;;;;;;8.59;100.00;100141.41;5033357;28;20531;-77
2023/04/11 00:33:58;;;;;;;10.35;6.57;;;;;;;8.50;100.00;100134.41;5013430;28;20064;-74
2023/04/11 00:36:23;;;;;;;11.20;6.10;;;;;;;8.51;100.00;100139.56;5019881;28;20132;-74
2023/04/11 00:38:49;;;;;;;9.07;6.23;;;;;;;8.39;100.00;100128.38;5026810;28;20152;-77
2023/04/11 00:41:14;;;;;;;11.17;6.70;;;;;;;8.45;100.00;100138.41;5017099;28;20072;-77
2023/04/11 00:43:39;;;;;;;11.90;6.43;;;;;;;8.41;100.00;100137.06;5022342;28;20033;-78
2023/04/11 00:46:07;;;;;;;10.57;6.37;;;;;;;8.40;100.00;100127.38;5019001;28;20061;-78
2023/04/11 00:48:34;;;;;;;12.00;6.35;;;;;;;8.44;100.00;100123.41;5009340;28;20034;-76
2023/04/11 00:50:59;;;;;;;8.93;5.60;;;;;;;8.45;100.00;100118.91;5041716;28;20033;-76
2023/04/11 00:53:25;;;;;;;10.20;6.43;;;;;;;8.48;100.00;100109.81;5015023;28;20043;-77
2023/04/11 00:55:50;;;;;;;12.47;6.40;;;;;;;8.47;100.00;100102.81;5019005;28;20100;-77
2023/04/11 00:58:17;;;;;;;9.65;5.75;;;;;;;8.48;100.00;100097.34;5040690;28;20029;-77
2023/04/11 01:00:43;;;;;;;11.02;5.85;;;;;;;8.45;100.00;100100.31;5013245;28;20351;-75
2023/04/11 01:03:09;;;;;;;8.80;5.55;;;;;;;8.39;100.00;100091.13;5030445;28;20041;-78
2023/04/11 01:05:35;;;;;;;8.67;5.40;;;;;;;8.41;100.00;100083.84;5035318;28;20056;-77
2023/04/11 01:08:02;;;;;;;9.68;5.43;;;;;;;8.37;100.00;100085.13;5018952;28;20038;-76
2023/04/11 01:10:29;;;;;;;9.30;5.47;;;;;;;8.42;100.00;100080.19;5018310;28;20026;-78
2023/04/11 01:12:58;;;;;;;7.75;5.40;;;;;;;8.39;100.00;100079.66;5045423;28;20041;-77
2023/04/11 01:15:24;;;;;;;7.93;5.05;;;;;;;8.45;100.00;100084.34;5040528;28;20127;-76
2023/04/11 01:17:54;;;;;;;8.20;4.85;;;;;;;8.37;100.00;100077.16;5027949;28;20029;-77
2023/04/11 01:20:23;;;;;;;8.07;5.70;;;;;;;8.34;100.00;100074.84;5037100;28;20093;-78
2023/04/11 01:22:49;;;;;;;9.73;5.45;;;;;;;8.32;100.00;100073.34;5028233;28;20048;-77
2023/04/11 01:25:19;;;;;;;8.27;5.07;;;;;;;8.35;100.00;100076.50;5013646;28;20321;-78
2023/04/11 01:27:44;;;;;;;6.47;4.82;;;;;;;8.25;100.00;100062.53;5017610;28;20029;-77
2023/04/11 01:30:11;;;;;;;10.23;4.97;;;;;;;8.26;100.00;100061.50;5039912;28;20144;-78
2023/04/11 01:32:37;;;;;;;11.00;5.28;;;;;;;8.25;100.00;100060.69;5013154;28;20445;-77
2023/04/11 01:35:04;;;;;;;8.77;5.50;;;;;;;8.21;100.00;100054.03;5020778;28;20505;-78
2023/04/11 01:37:29;;;;;;;7.70;4.50;;;;;;;8.21;100.00;100062.00;5031862;28;20072;-78
2023/04/11 01:39:54;;;;;;;7.70;4.57;;;;;;;8.18;100.00;100057.03;5039201;28;20057;-77
2023/04/11 01:42:21;;;;;;;6.88;4.50;;;;;;;8.17;100.00;100059.84;5012848;28;20383;-76
2023/04/11 01:44:49;;;;;;;6.93;4.63;;;;;;;8.16;100.00;100055.53;5012458;28;20037;-76
2023/04/11 01:47:15;;;;;;;5.95;4.35;;;;;;;8.18;100.00;100040.25;5035772;28;20041;-76
2023/04/11 01:49:41;;;;;;;8.73;4.32;;;;;;;8.26;100.00;100048.22;5031078;28;20031;-77
2023/04/11 01:52:07;;;;;;;;;;;;;;;8.19;100.00;100032.13;5030879;28;20037;-76
2023/04/11 01:54:32;;;;;;;8.32;4.22;;;;;;;8.09;100.00;100026.09;5036080;28;20331;-76
2023/04/11 01:56:57;;;;;;;8.57;3.70;;;;;;;8.15;100.00;100019.31;5022547;28;20527;-77
2023/04/11 01:59:23;;;;;;;7.30;3.77;;;;;;;8.07;100.00;100016.63;5030971;28;20402;-76
2023/04/11 02:01:48;;;;;;;7.90;3.77;;;;;;;8.07;100.00;100027.25;5037238;28;20041;-76
2023/04/11 02:04:13;;;;;;;6.63;3.77;;;;;;;8.04;100.00;100028.41;5040967;28;20069;-75
2023/04/11 02:06:40;;;;;;;;;;;;;;;8.10;100.00;100026.91;5008197;28;20056;-76
2023/04/11 02:09:05;;;;;;;6.05;3.90;;;;;;;7.99;100.00;100018.28;5035592;28;20285;-76
2023/04/11 02:11:31;;;;;;;7.07;4.20;;;;;;;8.00;100.00;100027.06;5041013;28;20448;-76
2023/04/11 02:13:56;;;;;;;7.97;4.33;;;;;;;7.96;100.00;100021.28;5033013;28;20037;-76
2023/04/11 02:16:24;;;;;;;8.17;5.53;;;;;;;8.08;100.00;100031.56;5031912;28;20317;-76
2023/04/11 02:18:51;;;;;;;7.65;4.57;;;;;;;7.98;100.00;100031.72;5017659;28;20029;-76
2023/04/11 02:21:16;;;;;;;8.50;4.90;;;;;;;8.02;100.00;100041.88;5030766;28;20040;-76
2023/04/11 02:23:42;;;;;;;9.52;5.47;;;;;;;7.94;100.00;100031.22;4996471;28;20044;-76
2023/04/11 02:26:07;;;;;;;10.67;5.20;;;;;;;7.95;100.00;100024.91;5014817;28;20038;-76
2023/04/11 02:28:33;;;;;;;9.93;4.87;;;;;;;7.87;100.00;100022.25;5029883;28;20123;-76
2023/04/11 02:30:58;;;;;;;8.93;5.07;;;;;;;7.87;100.00;100008.97;5006350;28;20032;-76
2023/04/11 02:33:25;;;;;;;9.53;4.90;;;;;;;7.85;100.00;100015.44;5034727;28;20065;-76
2023/04/11 02:35:50;;;;;;;;;;;;;;;7.84;100.00;100009.25;5039746;28;20040;-76
2023/04/11 02:38:16;;;;;;;11.15;5.47;;;;;;;7.74;100.00;99996.13;5020722;28;19913;-76
2023/04/11 02:40:41;;;;;;;8.70;4.60;;;;;;;7.82;100.00;99992.69;5012030;28;20041;-77
2023/04/11 02:43:06;;;;;;;7.80;4.57;;;;;;;7.81;100.00;99991.00;5015117;28;20060;-76
2023/04/11 02:45:32;;;;;;;9.47;5.27;;;;;;;7.83;100.00;99989.00;5011183;28;20505;-76
2023/04/11 02:47:59;;;;;;;9.43;4.68;;;;;;;7.87;100.00;99995.66;5038146;28;20609;-76
2023/04/11 02:50:25;;;;;;;5.57;3.50;;;;;;;7.84;100.00;99993.31;4998890;28;20021;-77
2023/04/11 02:52:54;;;;;;;8.52;4.65;;;;;;;7.82;100.00;99980.22;5018730;28;20136;-76
2023/04/11 02:55:23;;;;;;;8.50;3.88;;;;;;;7.87;100.00;99974.41;5021688;28;20021;-75
2023/04/11 02:57:50;;;;;;;7.85;3.97;;;;;;;7.89;100.00;99971.56;5033903;28;20155;-76
2023/04/11 03:00:18;;;;;;;6.05;3.97;;;;;;;7.85;100.00;99965.75;5031464;28;20034;-76
2023/04/11 03:02:48;;;;;;;6.97;4.00;;;;;;;7.86;100.00;99962.09;5015806;28;20038;-75
2023/04/11 03:05:17;;;;;;;6.75;3.97;;;;;;;7.85;100.00;99960.44;5035950;28;20030;-76
2023/04/11 03:07:46;;;;;;;5.95;3.65;;;;;;;7.84;100.00;99961.44;5012700;28;20029;-76
2023/04/11 03:10:11;;;;;;;7.37;3.70;;;;;;;7.86;100.00;99950.66;5030760;28;20538;-77
2023/04/11 03:12:37;;;;;;;7.10;3.57;;;;;;;7.90;100.00;99947.50;4995257;28;20870;-76
2023/04/11 03:15:04;;;;;;;6.15;4.22;;;;;;;7.80;100.00;99944.16;5018203;28;20272;-76
2023/04/11 03:17:30;;;;;;;;;;;;;;;7.84;100.00;99937.50;5023775;28;20568;-76
2023/04/11 03:19:56;;;;;;;7.93;3.72;;;;;;;7.85;100.00;99935.72;5012420;28;19914;-76
2023/04/11 03:22:23;;;;;;;6.13;4.15;;;;;;;7.88;100.00;99932.72;5017791;28;20029;-77
2023/04/11 03:24:48;;;;;;;9.57;4.13;;;;;;;7.75;100.00;99917.22;5033417;28;20228;-75
2023/04/11 03:27:14;;;;;;;;;;;;;;;7.83;100.00;99920.75;5008660;28;20102;-76
2023/04/11 03:29:42;;;;;;;9.43;4.53;;;;;;;7.82;100.00;99920.94;5034034;28;19917;-75
2023/04/11 03:32:15;;;;;;;9.82;4.22;;;;;;;7.82;100.00;99927.06;5022921;28;20403;-77
2023/04/11 03:34:41;;;;;;;8.95;4.20;;;;;;;7.78;100.00;99924.91;5011434;28;20037;-75
2023/04/11 03:37:09;;;;;;;9.10;5.80;;;;;;;7.80;100.00;99929.06;5030740;28;20037;-76
2023/04/11 03:39:36;;;;;;;11.75;5.65;;;;;;;7.76;100.00;99919.75;4989251;28;20068;-75
2023/04/11 03:42:02;;;;;;;10.57;4.97;;;;;;;7.83;100.00;99920.75;5031744;28;20081;-76
2023/04/11 03:44:28;;;;;;;;;;;;;;;7.83;100.00;99912.78;5015793;28;20032;-75
2023/04/11 03:46:54;;;;;;;11.35;4.93;;;;;;;7.83;100.00;99904.78;5015944;28;19913;-76
2023/04/11 03:49:19;;;;;;;8.77;5.03;;;;;;;7.90;100.00;99906.81;5026278;28;20050;-76
2023/04/11 03:51:50;;;;;;;10.35;5.50;;;;;;;7.90;100.00;99894.34;5010609;28;20049;-76
2023/04/11 03:54:16;;;;;;;13.05;6.80;;;;;;;7.88;100.00;99896.31;5030553;28;20030;-76
2023/04/11 03:56:45;;;;;;;11.52;6.68;;;;;;;7.89;100.00;99887.38;5012291;28;20034;-76
2023/04/11 03:59:17;;;;;;;9.07;6.03;;;;;;;7.87;100.00;99889.38;5033659;28;20824;-76
2023/04/11 04:02:02;;;;;;;11.02;6.40;;;;;;;7.86;100.00;99887.69;5043205;28;20478;-75
2023/04/11 04:04:29;;;;;;;;;;;;;;;7.92;100.00;99896.84;5043643;28;20025;-76
2023/04/11 04:07:08;;;;;;;13.38;6.57;;;;;;;7.89;100.00;99905.97;5015608;28;19939;-75
2023/04/11 04:09:39;;;;;;;12.25;7.85;;;;;;;7.90;100.00;99899.66;5042803;28;20087;-75
2023/04/11 04:12:05;;;;;;;10.38;7.10;;;;;;;7.86;100.00;99902.81;5037559;28;20504;-76
2023/04/11 04:14:48;;;;;;;12.30;6.80;;;;;;;7.81;100.00;99885.53;5013003;28;20025;-74
2023/04/11 04:17:15;;;;;;;19.33;9.15;;;;;;;7.82;100.00;99873.09;5038365;28;20469;-76
2023/04/11 04:19:43;;;;;;;11.07;6.70;;;;;;;7.83;100.00;99893.34;5031019;28;20038;-76
2023/04/11 04:22:16;;;;;;;13.20;6.88;;;;;;;7.82;100.00;99886.38;5004793;28;20021;-75
2023/04/11 04:24:46;;;;;;;11.40;6.50;;;;;;;7.72;100.00;99869.75;5009571;28;20114;-77
2023/04/11 04:27:19;;;;;;;9.70;6.60;;;;;;;7.79;100.00;99881.38;5010558;28;20026;-75
2023/04/11 04:29:47;;;;;;;9.38;6.60;;;;;;;7.77;100.00;99886.03;5041532;28;20585;-75
2023/04/11 04:32:21;;;;;;;15.80;7.97;;;;;;;7.70;100.00;99890.34;5016578;28;20087;-74
2023/04/11 04:34:54;;;;;;;13.32;6.53;;;;;;;7.77;100.00;99900.16;5030857;28;20034;-75
2023/04/11 04:37:44;;;;;;;12.88;7.65;;;;;;;7.74;100.00;99889.84;5023451;28;20095;-76
2023/04/11 04:40:36;;;;;;;12.70;7.57;;;;;;;7.80;100.00;99899.00;5035150;28;20483;-76
2023/04/11 04:43:07;;;;;;;11.30;6.47;;;;;;;7.75;100.00;99895.97;5042148;28;20116;-76
2023/04/11 04:45:48;;;;;;;11.75;6.68;;;;;;;7.80;100.00;99899.00;5005709;28;20092;-76
2023/04/11 04:48:19;;;;;;;11.70;6.10;;;;;;;7.64;100.00;99891.00;5028019;28;20410;-76
2023/04/11 04:50:44;;;;;;;9.97;5.07;;;;;;;7.59;100.00;99904.78;5019861;28;20037;-76
2023/04/11 04:53:10;;;;;;;6.40;3.00;;;;;;;7.45;100.00;99886.84;5019965;28;20032;-75
2023/04/11 04:55:41;;;;;;;1.83;1.17;;;;;;;7.28;100.00;99846.13;5037151;28;20294;-75
2023/04/11 04:58:07;;;;;;;2.72;1.40;;;;;;;7.20;100.00;99817.75;5030947;28;20037;-76
2023/04/11 05:00:33;;;;;;;1.95;1.02;;;;;;;7.11;100.00;99802.78;5035903;28;20041;-75
2023/04/11 05:03:04;;;;;;;2.67;1.60;;;;;;;7.05;100.00;99792.84;5022966;28;20055;-76
2023/04/11 05:05:31;;;;;;;1.55;0.73;;;;;;;6.99;100.00;99789.00;5006832;28;20372;-75
2023/04/11 05:07:56;;;;;;;;;;;;;;;6.96;100.00;99798.13;5024841;28;20030;-76
2023/04/11 05:10:21;;;;;;;;;;;;;;;6.84;100.00;99780.84;5036538;28;19917;-76
2023/04/11 05:12:47;;;;;;;1.10;0.70;;;;;;;6.80;100.00;99776.03;5020093;28;20163;-75
2023/04/11 05:15:14;;;;;;;2.07;0.80;;;;;;;6.74;100.00;99775.69;5010448;28;20052;-76
2023/04/11 05:17:40;;;;;;;1.60;0.80;;;;;;;6.68;100.00;99768.34;4997620;28;20304;-76
2023/04/11 05:20:07;;;;;;;2.00;0.75;;;;;;;6.69;100.00;99774.47;5041644;28;20064;-75
2023/04/11 05:22:33;;;;;;;1.70;0.90;;;;;;;6.66;100.00;99778.28;5008737;28;20487;-75
2023/04/11 05:25:00;;;;;;;1.73;1.17;;;;;;;6.70;100.00;99790.25;5030888;28;20112;-76
2023/04/11 05:27:26;;;;;;;2.05;1.33;;;;;;;6.54;100.00;99792.84;5014276;28;20030;-76
2023/04/11 05:29:53;;;;;;;3.15;1.30;;;;;;;6.63;100.00;99794.53;5034583;28;20494;-76
2023/04/11 05:32:18;;;;;;;3.92;1.13;;;;;;;6.58;100.00;99791.53;5014459;28;20044;-75
2023/04/11 05:34:54;;;;;;;2.10;1.20;;;;;;;6.61;100.00;99803.66;5039796;28;20041;-76
2023/04/11 05:37:30;;;;;;;2.05;0.95;;;;;;;6.63;100.00;99817.59;5041795;28;20026;-76
2023/04/11 05:39:55;;;;;;;2.15;1.00;;;;;;;6.59;100.00;99814.41;5022656;28;20035;-77
2023/04/11 05:42:21;;;;;;;4.43;1.38;;;;;;;6.62;100.00;99819.38;5035433;28;20026;-75
2023/04/11 05:44:46;;;;;;;1.97;1.07;;;;;;;6.65;100.00;99829.69;5025530;28;20087;-75
2023/04/11 05:47:11;;;;;;;2.53;0.83;;;;;;;6.58;100.00;99831.31;5026425;28;20692;-75
2023/04/11 05:49:37;;;;;;;3.30;1.27;;;;;;;6.63;100.00;99838.81;5042701;28;20900;-75
2023/04/11 05:52:03;;;;;;;2.38;1.30;;;;;;;6.60;100.00;99847.06;5007125;28;20080;-75
2023/04/11 05:54:33;;;;;;;1.47;1.27;;;;;;;6.55;100.00;99850.19;5006181;28;20080;-74
2023/04/11 05:56:59;;;;;;;7.13;1.77;;;;;;;6.54;100.00;99856.50;5026662;28;20462;-75
2023/04/11 05:59:24;;;;;;;5.78;1.90;;;;;;;6.41;100.00;99854.25;5026530;28;20048;-75
2023/04/11 06:01:50;;;;;;;1.70;1.23;;;;;;;6.49;100.00;99866.75;5020166;28;20044;-75
2023/04/11 06:04:15;;;;;;;2.17;1.70;;;;;;;6.50;100.00;99873.69;5020895;28;20036;-74
2023/04/11 06:06:42;;;;;;;10.17;1.73;;;;;;;6.54;100.00;99875.06;5034835;28;20048;-75
2023/04/11 06:09:09;;;;;;;4.07;1.50;;;;;;;6.57;100.00;99860.66;5029142;28;20508;-75
2023/04/11 06:11:35;;;;;;;3.47;1.15;;;;;;;6.78;100.00;99876.97;5033864;28;20128;-75
2023/04/11 06:14:00;;;;;;;2.03;1.23;;;;;;;6.83;100.00;99879.97;5034721;28;20034;-75
2023/04/11 06:16:25;;;;;;;3.47;1.50;;;;;;;6.87;100.00;99877.84;5025309;28;20382;-75
2023/04/11 06:18:51;;;;;;;4.40;1.57;;;;;;;6.93;100.00;99877.19;5018299;28;20039;-74
2023/04/11 06:21:16;;;;;;;3.27;1.07;;;;;;;7.12;100.00;99873.47;5013493;28;20037;-74
2023/04/11 06:23:41;;;;;;;2.80;1.80;;;;;;;6.91;100.00;99834.91;5039642;28;20246;-74
2023/04/11 06:26:07;;;;;;;5.07;1.40;;;;;;;6.94;100.00;99839.91;5013861;28;20037;-74
2023/04/11 06:28:32;;;;;;;5.87;1.90;;;;;;;7.07;100.00;99858.03;5012724;28;20057;-75
2023/04/11 06:30:58;;;;;;;5.03;2.17;;;;;;;7.00;100.00;99842.91;5038284;28;20037;-74
2023/04/11 06:33:23;;;;;;;4.20;1.60;;;;;;;7.03;100.00;99851.38;5015205;28;20506;-74
2023/04/11 06:35:48;;;;;;;3.57;2.00;;;;;;;7.14;100.00;99860.84;5024753;28;20825;-75
2023/04/11 06:38:14;;;;;;;1.93;1.67;;;;;;;7.15;100.00;99863.34;5019822;28;20044;-74
2023/04/11 06:40:39;;;;;;;6.85;2.30;;;;;;;7.17;100.00;99872.00;5014697;28;20034;-74
2023/04/11 06:43:04;;;;;;;11.33;2.53;;;;;;;7.18;100.00;99868.31;5015810;28;20037;-74
2023/04/11 06:45:30;;;;;;;3.97;2.20;;;;;;;7.05;100.00;99864.50;5041785;28;20033;-74
2023/04/11 06:47:55;;;;;;;4.00;2.10;;;;;;;7.08;100.00;99865.00;5023196;28;20048;-74
2023/04/11 06:50:21;;;;;;;7.50;2.27;;;;;;;6.97;100.00;99860.78;5018471;28;20026;-74
2023/04/11 06:52:46;;;;;;;4.90;2.40;;;;;;;7.01;100.00;99877.25;5015680;28;20041;-74
2023/04/11 06:55:14;;;;;;;5.13;2.30;;;;;;;6.94;100.00;99876.22;5005488;28;20034;-76
2023/04/11 06:57:40;;;;;;;8.50;2.65;;;;;;;6.95;100.00;99888.50;5032379;28;20041;-74
2023/04/11 07:00:06;;;;;;;4.88;2.85;;;;;;;6.97;100.00;99894.47;5024314;28;20026;-75
2023/04/11 07:02:34;;;;;;;5.20;2.58;;;;;;;7.16;100.00;99918.13;5026769;28;20045;-74
2023/04/11 07:05:00;;;;;;;5.70;2.75;;;;;;;7.04;100.00;99908.75;5008629;28;20049;-75
2023/04/11 07:07:26;;;;;;;3.35;2.65;;;;;;;7.13;100.00;99921.06;5010652;28;20026;-75
2023/04/11 07:09:51;;;;;;;8.13;3.25;;;;;;;7.07;100.00;99912.91;5013209;28;20533;-75
2023/04/11 07:12:17;;;;;;;7.07;3.28;;;;;;;6.98;100.00;99914.72;5034411;28;20091;-75
2023/04/11 07:14:42;;;;;;;4.03;3.10;;;;;;;6.89;100.00;99913.03;5040821;28;20061;-75
2023/04/11 07:17:08;;;;;;;5.80;3.47;;;;;;;6.87;100.00;99922.97;5026015;28;20443;-75
2023/04/11 07:19:33;;;;;;;6.57;3.20;;;;;;;7.06;100.00;99953.75;5040967;28;20033;-75
2023/04/11 07:21:59;;;;;;;9.30;3.40;;;;;;;6.94;100.00;99940.75;5017773;28;20041;-75
2023/04/11 07:24:24;;;;;;;4.30;3.47;;;;;;;6.95;100.00;99954.84;5006040;28;20403;-75
2023/04/11 07:26:52;;;;;;;7.00;3.47;;;;;;;6.89;100.00;99958.13;5004781;28;20030;-75
2023/04/11 07:29:17;;;;;;;7.93;4.07;;;;;;;6.89;100.00;99960.78;5021291;28;20029;-76
2023/04/11 07:31:43;;;;;;;13.27;5.65;;;;;;;6.80;100.00;99959.09;5022040;28;20045;-75
2023/04/11 07:34:09;;;;;;;7.45;4.55;;;;;;;7.00;100.00;99979.09;5029571;28;20033;-75
2023/04/11 07:36:35;;;;;;;10.80;4.47;;;;;;;7.04;100.00;99977.78;5013317;28;20565;-75
2023/04/11 07:39:00;;;;;;;12.93;4.97;;;;;;;7.30;100.00;99980.38;5025178;28;20030;-75
2023/04/11 07:41:26;;;;;;;9.70;3.72;;;;;;;7.52;100.00;99991.44;5025293;28;20291;-75
2023/04/11 07:43:51;;;;;;;7.53;4.30;;;;;;;7.69;100.00;99973.72;5024991;28;20034;-76
2023/04/11 07:46:17;;;;;;;6.97;4.07;;;;;;;7.69;100.00;99940.00;5030250;28;20101;-76
2023/04/11 07:48:42;;;;;;;8.33;3.47;;;;;;;7.72;100.00;99915.75;5029534;28;20903;-75
2023/04/11 07:51:10;;;;;;;6.00;3.47;;;;;;;7.80;100.00;99909.63;5016654;28;20316;-76
2023/04/11 07:53:36;;;;;;;9.07;3.38;;;;;;;7.93;100.00;99909.94;5009710;28;20125;-76
2023/04/11 07:56:01;;;;;;;10.33;3.90;;;;;;;8.16;100.00;99909.28;5007878;28;20116;-75
2023/04/11 07:58:27;;;;;;;6.53;3.20;;;;;;;8.19;100.00;99885.00;5038765;28;20658;-76
2023/04/11 08:00:52;;;;;;;6.38;2.97;;;;;;;8.32;100.00;99872.03;5028705;28;20916;-75
2023/04/11 08:03:18;;;;;;;4.80;2.00;;;;;;;8.13;100.00;99822.72;5027161;28;20026;-74
2023/04/11 08:05:43;;;;;;;4.17;1.90;;;;;;;8.49;100.00;99802.88;5007722;28;20030;-75
2023/04/11 08:08:08;;;;;;;10.90;2.73;;;;;;;8.76;100.00;99767.84;5007721;28;20474;-75
2023/04/11 08:10:34;;;;;;;4.43;1.60;;;;;;;9.17;100.00;99748.91;5015251;28;20124;-75
2023/04/11 08:13:00;;;;;;;4.77;1.73;;;;;;;9.26;100.00;99697.25;5023133;28;20479;-76
2023/04/11 08:15:25;;;;;;;2.83;1.90;;;;;;;9.43;100.00;99626.00;5025190;28;20056;-76
2023/04/11 08:17:54;;;;;;;2.83;1.70;;;;;;;9.13;100.00;99497.34;5027246;28;20508;-77
2023/04/11 08:20:20;;;;;;;8.55;1.67;;;;;;;10.20;100.00;99583.94;5023082;28;20121;-76
2023/04/11 08:22:46;;;;;;;1.58;1.35;;;;;;;10.39;100.00;99471.28;5007405;28;20435;-76
2023/04/11 08:25:12;;;;;;;3.80;1.40;;;;;;;10.11;100.00;99309.38;5024700;28;20041;-75
2023/04/11 08:27:38;;;;;;;;;;;;;;;10.03;100.00;99330.84;5021721;28;20479;-75
2023/04/11 08:30:07;;;;;;;6.85;1.67;;;;;;;10.27;100.00;99353.56;5023073;28;19920;-76
2023/04/11 08:32:33;;;;;;;4.53;1.63;;;;;;;10.03;100.00;99229.53;5019970;28;20043;-76
2023/04/11 08:34:58;;;;;;;2.60;1.42;;;;;;;10.25;100.00;99266.78;5007209;28;20034;-75
2023/04/11 08:37:23;;;;;;;5.03;1.60;;;;;;;10.65;100.00;99317.72;5023141;28;20557;-75
2023/04/11 08:39:49;;;;;;;2.67;1.60;;;;;;;10.46;100.00;99224.00;5004443;28;20034;-75
2023/04/11 08:42:22;;;;;;;2.90;1.30;;;;;;;10.64;100.00;99263.50;5023362;28;20030;-75
2023/04/11 08:44:54;;;;;;;5.13;1.88;;;;;;;10.83;100.00;99211.22;4990539;28;20045;-75
2023/04/11 08:47:19;;;;;;;2.45;1.85;;;;;;;10.17;100.00;99094.41;5020293;28;20173;-76
2023/04/11 08:49:48;;;;;;;1.02;0.90;;;;;;;10.02;100.00;99193.22;5025740;28;20037;-76
2023/04/11 08:52:15;;;;;;;2.75;0.82;;;;;;;9.82;100.00;99250.91;5008518;28;20383;-76
2023/04/11 08:54:40;;;;;;;2.67;0.80;;;;;;;9.72;100.00;99294.72;5009238;28;20026;-75
2023/04/11 08:57:05;;;;;;;0.97;0.70;;;;;;;9.66;100.00;99323.97;4990745;28;20025;-75
2023/04/11 08:59:34;;;;;;;2.03;0.70;;;;;;;9.55;100.00;99303.97;5007794;28;20038;-75
2023/04/11 09:02:08;;;;;;;1.38;0.50;;;;;;;10.35;100.00;99424.69;5006726;28;20068;-76
2023/04/11 09:04:41;;;;;;;2.20;0.57;;;;;;;11.04;100.00;99287.69;5024395;28;20045;-75
2023/04/11 09:07:06;;;;;;;1.42;0.43;;;;;;;10.86;100.00;99129.88;5022536;28;20387;-75
2023/04/11 09:09:33;;;;;;;0.95;0.60;;;;;;;11.80;100.00;99137.66;5005720;28;20016;-75
2023/04/11 09:12:00;;;;;;;0.95;0.82;;;;;;;11.79;100.00;99002.31;5013152;28;20103;-75
2023/04/11 09:14:26;;;;;;;17.13;1.88;;;;;;;11.50;100.00;98931.53;5022421;28;20030;-75
2023/04/11 09:17:00;;;;;;;1.17;0.93;;;;;;;10.73;100.00;98747.16;5004356;28;20112;-75
2023/04/11 09:19:28;;;;;;;2.17;1.45;;;;;;;10.79;100.00;98932.34;5022783;28;20041;-75
2023/04/11 09:21:59;;;;;;;3.80;0.70;;;;;;;10.98;100.00;99000.94;5022705;28;20080;-75
2023/04/11 09:24:25;;;;;;;2.45;1.17;;;;;;;10.72;100.00;99023.13;5010090;28;20041;-74
2023/04/11 09:27:14;;;;;;;5.60;1.50;;;;;;;10.95;100.00;99033.34;5013116;28;20169;-75
2023/04/11 09:29:47;;;;;;;3.97;1.40;;;;;;;10.50;100.00;98981.66;5013624;28;20048;-75
2023/04/11 09:32:29;;;;;;;1.27;0.93;;;;;;;9.99;100.00;99017.63;5027613;28;20034;-75
2023/04/11 09:35:11;;;;;;;1.52;1.00;;;;;;;9.94;100.00;99086.72;5015390;28;20116;-74
2023/04/11 09:37:51;;;;;;;3.00;0.80;;;;;;;10.21;100.00;99124.16;5016114;28;20034;-75
2023/04/11 09:40:19;;;;;;;1.95;0.68;;;;;;;10.17;100.00;99096.25;5026720;28;20392;-75
2023/04/11 09:42:45;;;;;;;0.50;0.50;;;;;;;9.94;100.00;99074.22;5026738;28;20026;-76
2023/04/11 09:45:15;;;;;;;;;;;;;;;9.85;100.00;98976.78;5013880;28;20164;-75
2023/04/11 09:47:41;;;;;;;1.45;0.50;;;;;;;9.66;100.00;99002.34;5027044;28;20000;-75
2023/04/11 09:50:06;;;;;;;0.63;0.40;;;;;;;9.55;100.00;98954.97;5002849;28;20438;-75
2023/04/11 09:52:32;;;;;;;0.52;0.40;;;;;;;9.63;100.00;99001.94;5003796;28;20884;-75
2023/04/11 09:54:59;;;;;;;0.55;0.38;;;;;;;9.64;100.00;99118.97;5012561;28;20095;-75
2023/04/11 09:57:26;;;;;;;0.40;0.40;;;;;;;9.36;100.00;99055.06;5000669;28;20477;-76
2023/04/11 09:59:52;;;;;;;1.27;0.40;;;;;;;9.36;100.00;99195.41;5018226;28;20069;-75
2023/04/11 10:02:18;;;;;;;1.08;0.50;;;;;;;8.99;100.00;99122.78;5005591;28;20030;-75
2023/04/11 10:04:43;;;;;;;0.77;0.40;;;;;;;8.48;100.00;99194.75;5020721;28;20437;-75
2023/04/11 10:07:13;;;;;;;0.73;0.50;;;;;;;8.54;100.00;99365.06;5017121;28;20068;-75
2023/04/11 10:09:41;;;;;;;0.65;0.50;;;;;;;8.64;100.00;99519.13;5016190;28;20034;-75
2023/04/11 10:12:07;;;;;;;2.47;0.73;;;;;;;8.68;100.00;99498.28;5004053;28;20547;-76
2023/04/11 10:14:35;;;;;;;1.10;0.83;;;;;;;8.63;100.00;99469.56;5032073;28;20064;-75
2023/04/11 10:17:17;;;;;;;1.48;0.50;;;;;;;8.98;100.00;99467.22;5007913;28;20280;-74
2023/04/11 10:19:43;;;;;;;0.60;0.45;;;;;;;8.72;100.00;99378.00;5031240;28;20045;-75
2023/04/11 10:22:10;;;;;;;0.40;0.40;;;;;;;8.79;100.00;99418.84;5040478;28;20032;-74
2023/04/11 10:24:37;;;;;;;1.75;0.60;;;;;;;8.77;100.00;99455.44;5001725;28;20037;-75
2023/04/11 10:27:03;;;;;;;2.80;1.08;;;;;;;9.08;100.00;99489.91;5021922;28;20041;-74
2023/04/11 10:29:29;;;;;;;1.08;0.65;;;;;;;8.96;100.00;99414.16;5035275;28;20448;-73
2023/04/11 10:32:20;;;;;;;2.40;0.57;;;;;;;9.19;100.00;99482.44;5039449;28;20021;-76
2023/04/11 10:34:48;;;;;;;1.25;0.52;;;;;;;9.36;100.00;99403.16;5024986;28;20039;-76
2023/04/11 10:37:13;;;;;;;2.58;0.88;;;;;;;9.44;100.00;99360.44;5025993;28;20048;-76
2023/04/11 10:39:59;;;;;;;0.87;0.70;;;;;;;9.80;100.00;99386.22;5024272;28;20033;-77
2023/04/11 10:42:41;;;;;;;2.90;0.57;;;;;;;9.81;100.00;99270.56;5032427;28;20108;-76
2023/04/11 10:45:29;;;;;;;2.38;0.90;;;;;;;10.16;100.00;99279.47;5024116;28;20036;-76
2023/04/11 10:47:57;;;;;;;3.08;0.60;;;;;;;10.25;100.00;99229.44;5019515;28;20037;-74
2023/04/11 10:50:25;;;;;;;3.22;0.93;;;;;;;10.06;100.00;99154.44;5007348;28;20014;-73
2023/04/11 10:52:58;;;;;;;3.75;0.70;;;;;;;10.30;100.00;99155.00;5018358;28;20026;-77
2023/04/11 10:55:26;;;;;;;1.27;0.82;;;;;;;10.56;100.00;99200.47;5021350;28;20071;-76
2023/04/11 10:58:15;;;;;;;3.10;1.30;;;;;;;11.10;100.00;99201.41;5039448;28;20033;-75
2023/04/11 11:00:53;;;;;;;1.17;0.80;;;;;;;11.60;100.00;99107.47;5022074;28;20490;-75
2023/04/11 11:03:20;;;;;;;1.45;0.80;;;;;;;11.79;100.00;99037.06;5034729;28;20398;-76
2023/04/11 11:05:47;;;;;;;3.05;0.77;;;;;;;11.55;100.00;98880.91;5018496;28;20021;-75
2023/04/11 11:08:12;;;;;;;0.63;0.63;;;;;;;11.58;100.00;98804.84;5018299;28;20889;-75
2023/04/11 11:10:47;;;;;;;1.98;0.73;;;;;;;11.43;100.00;98718.81;5028473;28;20065;-74
2023/04/11 11:13:14;;;;;;;1.98;0.60;;;;;;;11.00;100.00;98573.47;5034437;28;20091;-74
2023/04/11 11:15:46;;;;;;;0.70;0.65;;;;;;;10.43;100.00;98629.50;5022860;28;20083;-77
2023/04/11 11:18:14;;;;;;;1.35;0.70;;;;;;;10.47;100.00;98724.09;5025539;28;20033;-77
2023/04/11 11:20:39;;;;;;;0.50;0.50;;;;;;;10.01;100.00;98722.31;5016368;28;20133;-77
2023/04/11 11:23:07;;;;;;;2.53;1.05;;;;;;;9.74;100.00;98849.47;5013947;28;20081;-78
2023/04/11 11:25:32;;;;;;;1.45;0.80;;;;;;;9.60;100.00;99008.50;5038622;28;20034;-74
2023/04/11 11:28:05;;;;;;;2.63;0.73;;;;;;;9.18;100.00;99078.75;5024801;28;20063;-76
2023/04/11 11:30:35;;;;;;;4.55;0.80;;;;;;;9.20;100.00;99279.91;5024604;28;20034;-77
2023/04/11 11:33:16;;;;;;;3.20;1.45;;;;;;;9.15;100.00;99391.44;5024196;28;20057;-77
2023/04/11 11:35:45;;;;;;;1.60;0.80;;;;;;;9.21;100.00;99510.53;5024178;28;20136;-76